Time;durP1;ratioP1;P1;durP2;ratioP2;P2;SDS_P1;SDS_P2;PMS_P1;PMS_P2;Temp;Humidity;BMP_temperature;BMP_pressure;BME280_temperature;BME280_humidity;BME280_pressure;Samples;Min_cycle;Max_cycle;Signal;HPM_P1;HPM_P2
2023/09/07 00:00:28;;;;;;;12.98;11.40;;;;;;;16.12;100.00;101914.50;6185643;23;20431;-81
2023/09/07 00:02:54;;;;;;;12.48;11.18;;;;;;;16.00;100.00;101901.38;6185945;23;20064;-83
2023/09/07 00:05:19;;;;;;;15.80;12.55;;;;;;;16.11;100.00;101918.88;6185158;23;20009;-82
2023/09/07 00:07:44;;;;;;;15.95;12.68;;;;;;;16.12;100.00;101919.69;6185652;23;20076;-81
2023/09/07 00:10:10;;;;;;;14.35;11.10;;;;;;;16.02;100.00;101919.50;6185709;23;20002;-82
2023/09/07 00:12:39;;;;;;;12.68;11.27;;;;;;;16.01;100.00;101917.84;6185990;23;20012;-82
2023/09/07 00:15:06;;;;;;;14.55;11.30;;;;;;;15.76;100.00;101896.06;6185533;23;20328;-81
2023/09/07 00:17:31;;;;;;;12.55;11.35;;;;;;;15.88;100.00;101917.00;6185533;23;20083;-82
2023/09/07 00:19:58;;;;;;;12.35;11.00;;;;;;;15.84;100.00;101916.41;6185589;23;20032;-81
2023/09/07 00:22:25;;;;;;;15.98;11.05;;;;;;;15.72;100.00;101898.97;6185332;23;20015;-82
2023/09/07 00:24:51;;;;;;;14.40;11.95;;;;;;;15.67;100.00;101891.50;6185502;23;20438;-82
2023/09/07 00:27:16;;;;;;;12.15;10.43;;;;;;;15.67;100.00;101914.09;6185768;23;20015;-82
2023/09/07 00:29:41;;;;;;;12.68;10.73;;;;;;;15.53;100.00;101888.09;6185424;23;20009;-82
2023/09/07 00:32:07;;;;;;;12.85;11.18;;;;;;;15.63;100.00;101910.00;6186072;23;20008;-79
2023/09/07 00:34:32;;;;;;;13.40;10.95;;;;;;;15.58;100.00;101907.69;6185196;23;20007;-82
2023/09/07 00:36:57;;;;;;;11.80;10.60;;;;;;;15.51;100.00;101906.44;6184990;23;20088;-82
2023/09/07 00:39:23;;;;;;;12.40;11.10;;;;;;;15.47;100.00;101904.97;6185558;23;20037;-81
2023/09/07 00:41:49;;;;;;;13.32;11.45;;;;;;;15.32;100.00;101880.78;6185431;23;20371;-82
2023/09/07 00:44:14;;;;;;;13.70;11.45;;;;;;;15.44;100.00;101903.41;6185276;23;20005;-82
2023/09/07 00:46:39;;;;;;;13.38;11.40;;;;;;;15.41;100.00;101903.59;6185443;23;20331;-82
2023/09/07 00:49:05;;;;;;;13.98;11.52;;;;;;;15.02;100.00;101838.56;6185084;23;20001;-81
2023/09/07 00:51:31;;;;;;;13.48;12.00;;;;;;;15.39;100.00;101902.03;6185248;23;20424;-81
2023/09/07 00:53:57;;;;;;;13.10;11.18;;;;;;;15.34;100.00;101906.69;6185007;23;20012;-82
2023/09/07 00:56:25;;;;;;;14.25;12.40;;;;;;;15.19;100.00;101880.75;6185403;23;20088;-81
2023/09/07 00:58:54;;;;;;;14.35;12.80;;;;;;;15.14;100.00;101875.03;6185548;23;20080;-81
2023/09/07 01:01:19;;;;;;;16.70;13.45;;;;;;;15.31;100.00;101899.09;6185228;23;20067;-82
2023/09/07 01:03:45;;;;;;;15.93;13.85;;;;;;;15.33;100.00;101905.03;6185045;23;20025;-81
2023/09/07 01:06:26;;;;;;;17.85;15.90;;;;;;;15.33;100.00;101902.44;6184922;23;20017;-81
2023/09/07 01:08:56;;;;;;;15.40;13.80;;;;;;;15.33;100.00;101907.63;6184935;23;20020;-81
2023/09/07 01:11:22;;;;;;;15.40;13.80;;;;;;;15.26;100.00;101898.59;6184902;23;20091;-81
2023/09/07 01:13:48;;;;;;;14.93;13.43;;;;;;;15.26;100.00;101901.19;6184951;23;20055;-82
2023/09/07 01:16:14;;;;;;;16.25;14.55;;;;;;;15.24;100.00;101898.69;6184673;23;20080;-83
2023/09/07 01:18:41;;;;;;;17.30;13.85;;;;;;;15.04;100.00;101866.16;6185091;23;20032;-82
2023/09/07 01:21:08;;;;;;;14.63;13.05;;;;;;;15.14;100.00;101898.47;6185014;23;20004;-82
2023/09/07 01:23:39;;;;;;;14.50;12.90;;;;;;;15.11;100.00;101903.84;6185013;23;20008;-82
2023/09/07 01:26:11;;;;;;;19.40;13.43;;;;;;;14.95;100.00;101868.53;6184856;23;20058;-82
2023/09/07 01:28:39;;;;;;;14.38;12.52;;;;;;;15.03;100.00;101890.50;6184889;23;20005;-82
2023/09/07 01:31:05;;;;;;;13.35;11.95;;;;;;;14.89;100.00;101875.78;6184964;23;20085;-82
2023/09/07 01:33:31;;;;;;;14.70;13.10;;;;;;;14.99;100.00;101898.59;6183288;23;20003;-80
2023/09/07 01:35:56;;;;;;;14.45;12.95;;;;;;;14.97;100.00;101883.09;6184244;23;20080;-82
2023/09/07 01:38:22;;;;;;;13.70;12.27;;;;;;;14.81;100.00;101859.00;6184690;23;20048;-81
2023/09/07 01:40:47;;;;;;;13.95;12.48;;;;;;;14.88;100.00;101887.13;6185116;23;20005;-82
2023/09/07 01:43:13;;;;;;;14.60;13.02;;;;;;;14.87;100.00;101879.44;6184741;23;20439;-81
2023/09/07 01:45:38;;;;;;;14.73;12.70;;;;;;;14.85;100.00;101889.94;6185151;23;20296;-82
2023/09/07 01:48:09;;;;;;;15.15;13.50;;;;;;;14.86;100.00;101889.00;6185066;23;20099;-82
2023/09/07 01:50:34;;;;;;;14.70;13.20;;;;;;;14.69;100.00;101865.00;6184769;23;20323;-81
2023/09/07 01:52:59;;;;;;;15.48;13.57;;;;;;;14.80;100.00;101886.78;6184473;23;20237;-81
2023/09/07 01:55:27;;;;;;;16.90;15.20;;;;;;;14.81;100.00;101879.81;6184480;23;20055;-81
2023/09/07 01:57:52;;;;;;;17.65;15.00;;;;;;;14.82;100.00;101890.09;6184844;23;20006;-82
2023/09/07 02:00:19;;;;;;;15.98;14.38;;;;;;;14.78;100.00;101888.66;6184478;23;20110;-82
2023/09/07 02:02:44;;;;;;;19.17;14.38;;;;;;;14.73;100.00;101874.25;6184874;23;20005;-82
2023/09/07 02:05:10;;;;;;;16.83;15.15;;;;;;;14.72;100.00;101867.41;6184399;23;20013;-82
2023/09/07 02:07:35;;;;;;;17.92;16.13;;;;;;;14.77;100.00;101881.78;6184683;23;20419;-81
2023/09/07 02:10:03;;;;;;;17.02;15.32;;;;;;;14.69;100.00;101878.00;6184821;23;20036;-82
2023/09/07 02:12:28;;;;;;;18.38;15.70;;;;;;;14.68;100.00;101882.38;6185054;23;20012;-82
2023/09/07 02:14:53;;;;;;;16.63;14.98;;;;;;;14.64;100.00;101884.31;6156661;23;20430;-82
2023/09/07 02:17:19;;;;;;;15.68;14.00;;;;;;;14.58;100.00;101881.28;6184678;23;20005;-82
2023/09/07 02:19:44;;;;;;;15.07;13.30;;;;;;;14.43;100.00;101866.59;6184953;23;20013;-82
2023/09/07 02:22:10;;;;;;;15.85;14.23;;;;;;;14.41;100.00;101865.88;6184531;23;20009;-81
2023/09/07 02:24:35;;;;;;;18.33;16.40;;;;;;;14.55;100.00;101884.03;6184716;23;20005;-81
2023/09/07 02:27:01;;;;;;;17.52;15.48;;;;;;;14.50;100.00;101878.31;6184778;23;20009;-82
2023/09/07 02:29:26;;;;;;;16.60;14.77;;;;;;;14.46;100.00;101875.09;6158222;23;20080;-82
2023/09/07 02:31:52;;;;;;;15.90;14.27;;;;;;;14.49;100.00;101882.69;6184517;23;20005;-82
2023/09/07 02:34:17;;;;;;;19.17;16.95;;;;;;;14.50;100.00;101873.97;6184424;23;20001;-82
2023/09/07 02:36:43;;;;;;;19.02;16.85;;;;;;;14.48;100.00;101867.19;6184275;23;20033;-82
2023/09/07 02:39:08;;;;;;;17.08;15.30;;;;;;;14.39;100.00;101862.53;6184935;23;20009;-82
2023/09/07 02:41:34;;;;;;;16.27;14.35;;;;;;;14.30;100.00;101850.94;6158429;23;20104;-81
2023/09/07 02:43:59;;;;;;;17.17;15.32;;;;;;;14.45;100.00;101881.19;6184823;23;20048;-80
2023/09/07 02:46:25;;;;;;;18.20;16.33;;;;;;;14.42;100.00;101878.75;6184767;23;20005;-82
2023/09/07 02:48:50;;;;;;;16.30;14.23;;;;;;;14.35;100.00;101880.06;6184826;23;20001;-81
2023/09/07 02:51:15;;;;;;;21.15;16.92;;;;;;;14.40;100.00;101877.19;6184964;23;20021;-81
2023/09/07 02:53:41;;;;;;;20.23;17.70;;;;;;;14.41;100.00;101877.09;6184450;23;20133;-82
2023/09/07 02:56:07;;;;;;;17.85;15.98;;;;;;;14.04;100.00;101823.97;6184564;23;20005;-81
2023/09/07 02:58:33;;;;;;;17.85;15.95;;;;;;;14.27;100.00;101848.56;6184504;23;20084;-81
2023/09/07 03:00:58;;;;;;;19.92;17.30;;;;;;;14.40;100.00;101872.00;6184744;23;20438;-82
2023/09/07 03:03:24;;;;;;;18.95;16.23;;;;;;;14.40;100.00;101879.78;6184203;23;20392;-82
2023/09/07 03:05:49;;;;;;;17.90;16.00;;;;;;;14.39;100.00;101873.75;6184585;23;20013;-82
2023/09/07 03:08:15;;;;;;;20.05;16.42;;;;;;;14.30;100.00;101864.78;6186223;23;20108;-81
2023/09/07 03:10:40;;;;;;;17.50;15.57;;;;;;;14.19;100.00;101856.81;6186627;23;20064;-82
2023/09/07 03:13:06;;;;;;;16.85;15.07;;;;;;;14.28;100.00;101873.59;6186418;23;20005;-82
2023/09/07 03:15:32;;;;;;;16.70;15.00;;;;;;;13.98;100.00;101827.81;6186447;23;20008;-82
2023/09/07 03:17:57;;;;;;;16.00;14.30;;;;;;;14.24;100.00;101879.91;6186349;23;20005;-82
2023/09/07 03:20:23;;;;;;;18.75;16.77;;;;;;;14.09;100.00;101847.09;6186405;23;20024;-82
2023/09/07 03:22:48;;;;;;;17.75;15.95;;;;;;;14.25;100.00;101878.97;6186025;23;20041;-82
2023/09/07 03:25:14;;;;;;;16.58;14.70;;;;;;;14.12;100.00;101863.31;6186532;23;20055;-81
2023/09/07 03:27:39;;;;;;;19.35;15.10;;;;;;;14.20;100.00;101871.47;6186553;23;20379;-81
2023/09/07 03:30:06;;;;;;;17.90;15.98;;;;;;;14.20;100.00;101876.66;6186138;23;20045;-81
2023/09/07 03:32:34;;;;;;;17.27;15.43;;;;;;;14.09;100.00;101860.06;6186273;23;20001;-80
2023/09/07 03:35:03;;;;;;;17.23;15.32;;;;;;;14.20;100.00;101878.44;6185947;23;20001;-82
2023/09/07 03:37:29;;;;;;;19.45;16.27;;;;;;;14.11;100.00;101863.41;6185996;23;20037;-81
2023/09/07 03:39:57;;;;;;;17.60;15.70;;;;;;;14.11;100.00;101879.00;6184152;23;20464;-81
2023/09/07 03:42:23;;;;;;;18.23;15.85;;;;;;;14.24;100.00;101882.50;6185885;23;20011;-81
2023/09/07 03:44:48;;;;;;;17.27;15.48;;;;;;;14.15;100.00;101885.66;6185971;23;20079;-82
2023/09/07 03:47:18;;;;;;;16.77;14.98;;;;;;;13.97;100.00;101874.66;6185927;23;20364;-81
2023/09/07 03:49:44;;;;;;;17.08;15.27;;;;;;;14.11;100.00;101884.19;6159084;23;20364;-81
2023/09/07 03:52:09;;;;;;;20.20;16.27;;;;;;;14.14;100.00;101891.78;6186159;23;20005;-80
2023/09/07 03:54:35;;;;;;;17.15;15.35;;;;;;;14.09;100.00;101888.66;6185705;23;20308;-81
2023/09/07 03:57:00;;;;;;;16.90;14.82;;;;;;;14.05;100.00;101890.56;6185686;23;20490;-82
2023/09/07 03:59:27;;;;;;;19.05;15.30;;;;;;;14.10;100.00;101891.13;6185800;23;20005;-80
2023/09/07 04:01:54;;;;;;;22.52;18.13;;;;;;;14.15;100.00;101886.47;6185798;23;20116;-81
2023/09/07 04:04:20;;;;;;;23.00;19.13;;;;;;;14.16;100.00;101889.91;6185626;23;20036;-81
2023/09/07 04:06:47;;;;;;;22.25;18.08;;;;;;;14.11;100.00;101886.78;6185741;23;20419;-81
2023/09/07 04:09:13;;;;;;;22.20;17.15;;;;;;;14.07;100.00;101879.19;6185926;23;20076;-81
2023/09/07 04:11:38;;;;;;;22.10;17.73;;;;;;;14.07;100.00;101886.16;6185827;23;20043;-81
2023/09/07 04:14:03;;;;;;;20.42;16.35;;;;;;;14.01;100.00;101879.53;6186002;23;20005;-80
2023/09/07 04:16:29;;;;;;;24.60;20.00;;;;;;;14.08;100.00;101877.41;6157761;23;20004;-82
2023/09/07 04:18:54;;;;;;;23.67;18.85;;;;;;;14.07;100.00;101879.19;6185737;23;20016;-81
2023/09/07 04:21:21;;;;;;;23.63;19.08;;;;;;;14.04;100.00;101883.72;6185655;23;20040;-81
2023/09/07 04:23:46;;;;;;;19.05;16.33;;;;;;;14.03;100.00;101875.09;6185551;23;20084;-82
2023/09/07 04:26:12;;;;;;;22.92;18.30;;;;;;;13.89;100.00;101864.72;6185809;23;20370;-82
2023/09/07 04:28:38;;;;;;;20.55;16.83;;;;;;;13.99;100.00;101876.22;6185648;23;20005;-82
2023/09/07 04:31:04;;;;;;;21.42;17.55;;;;;;;13.77;100.00;101845.53;6186163;23;20099;-81
2023/09/07 04:33:31;;;;;;;20.40;16.58;;;;;;;13.71;100.00;101851.06;6185997;23;19997;-82
2023/09/07 04:36:08;;;;;;;23.50;17.17;;;;;;;13.75;100.00;101847.34;6185846;23;20036;-82
2023/09/07 04:38:33;;;;;;;22.65;18.88;;;;;;;13.98;100.00;101890.13;6185610;23;20001;-82
2023/09/07 04:41:08;;;;;;;20.77;16.52;;;;;;;13.94;100.00;101893.81;6185461;23;20322;-82
2023/09/07 04:43:34;;;;;;;22.02;17.15;;;;;;;13.91;100.00;101882.78;6185549;23;20012;-82
2023/09/07 04:45:59;;;;;;;19.95;16.95;;;;;;;13.76;100.00;101861.16;6184098;23;20087;-80
2023/09/07 04:48:25;;;;;;;17.98;15.90;;;;;;;13.93;100.00;101889.56;6185004;23;20039;-81
2023/09/07 04:51:06;;;;;;;19.92;16.83;;;;;;;13.62;100.00;101846.44;6185591;23;20011;-81
2023/09/07 04:53:34;;;;;;;21.65;15.85;;;;;;;13.85;100.00;101891.78;6185522;23;20005;-82
2023/09/07 04:56:00;;;;;;;20.27;16.48;;;;;;;13.61;100.00;101847.34;6184951;23;20012;-79
2023/09/07 04:58:26;;;;;;;20.55;17.08;;;;;;;13.90;100.00;101889.75;6185384;23;20005;-82
2023/09/07 05:00:52;;;;;;;20.52;17.42;;;;;;;13.90;100.00;101887.16;6185289;23;20001;-82
2023/09/07 05:03:17;;;;;;;19.13;16.13;;;;;;;13.87;100.00;101896.91;6185254;23;20005;-82
2023/09/07 05:05:46;;;;;;;21.48;18.13;;;;;;;13.95;100.00;101895.47;6184995;23;20013;-81
2023/09/07 05:08:11;;;;;;;22.20;17.77;;;;;;;13.94;100.00;101895.59;6185467;23;20443;-81
2023/09/07 05:10:38;;;;;;;20.65;18.45;;;;;;;13.95;100.00;101900.69;6185376;23;20010;-80
2023/09/07 05:13:03;;;;;;;20.08;17.95;;;;;;;13.81;100.00;101874.72;6185075;23;20009;-81
2023/09/07 05:15:29;;;;;;;17.33;12.65;;;;;;;14.08;100.00;101869.63;6185387;23;20009;-86
2023/09/07 05:17:55;;;;;;;18.83;15.13;;;;;;;14.24;100.00;101880.72;6185385;23;20427;-88
2023/09/07 05:20:21;;;;;;;15.98;13.93;;;;;;;14.59;100.00;101901.13;6185011;23;20415;-86
2023/09/07 05:22:47;;;;;;;17.77;14.77;;;;;;;14.74;100.00;101907.97;6184697;23;20457;-85
2023/09/07 05:25:13;;;;;;;16.10;13.93;;;;;;;14.88;100.00;101901.91;6184898;23;20001;-85
2023/09/07 05:27:38;;;;;;;16.65;14.88;;;;;;;14.80;100.00;101896.34;6158474;23;20494;-85
2023/09/07 05:30:05;;;;;;;16.10;14.25;;;;;;;14.86;100.00;101886.41;6184666;23;20004;-84
2023/09/07 05:32:30;;;;;;;17.10;13.80;;;;;;;14.94;100.00;101891.09;6184494;23;20001;-83
2023/09/07 05:34:56;;;;;;;18.73;14.73;;;;;;;15.09;100.00;101905.72;6185016;23;20005;-83
2023/09/07 05:37:21;;;;;;;16.90;13.80;;;;;;;15.23;100.00;101911.78;6157903;23;20035;-84
2023/09/07 05:39:47;;;;;;;16.42;13.27;;;;;;;15.18;100.00;101894.72;6185113;23;20005;-86
2023/09/07 05:42:12;;;;;;;18.25;14.07;;;;;;;15.40;100.00;101917.56;6185022;23;20015;-85
2023/09/07 05:44:38;;;;;;;16.95;14.13;;;;;;;15.39;100.00;101918.50;6184934;23;20033;-85
2023/09/07 05:47:04;;;;;;;16.65;14.13;;;;;;;15.32;100.00;101898.16;6184854;23;20005;-85
2023/09/07 05:49:30;;;;;;;18.25;12.95;;;;;;;15.61;100.00;101914.50;6185245;23;20001;-86
2023/09/07 05:51:55;;;;;;;18.38;15.27;;;;;;;15.63;100.00;101918.69;6184878;23;20016;-87
2023/09/07 05:54:20;;;;;;;15.68;12.50;;;;;;;15.70;100.00;101917.31;6184624;23;20036;-88
2023/09/07 05:56:46;;;;;;;15.95;12.93;;;;;;;15.69;100.00;101909.59;6183576;23;20012;-83
2023/09/07 05:59:11;;;;;;;16.77;13.93;;;;;;;15.49;100.00;101897.88;6185553;23;20001;-83
2023/09/07 06:01:36;;;;;;;18.25;14.32;;;;;;;15.71;100.00;101918.97;6186091;23;20005;-82
2023/09/07 06:04:02;;;;;;;17.95;13.73;;;;;;;15.76;100.00;101926.50;6184337;23;20012;-86
2023/09/07 06:06:29;;;;;;;16.92;14.05;;;;;;;15.76;100.00;101910.88;6184699;23;20009;-83
2023/09/07 06:08:54;;;;;;;14.98;13.07;;;;;;;15.85;100.00;101896.41;6184519;23;20005;-86
2023/09/07 06:11:19;;;;;;;16.13;13.13;;;;;;;16.38;100.00;101936.16;6184359;23;20028;-83
2023/09/07 06:13:46;;;;;;;16.23;13.88;;;;;;;16.85;100.00;101938.88;6184922;23;20012;-84
2023/09/07 06:16:12;;;;;;;16.15;13.68;;;;;;;17.21;100.00;101939.78;6184554;23;20331;-83
2023/09/07 06:18:37;;;;;;;17.23;13.65;;;;;;;17.57;100.00;101930.13;6157490;23;20009;-85
2023/09/07 06:21:04;;;;;;;17.95;13.85;;;;;;;17.66;100.00;101932.91;6184652;23;20009;-85
2023/09/07 06:23:29;;;;;;;18.80;15.45;;;;;;;17.58;100.00;101906.50;6184908;23;20024;-87
2023/09/07 06:25:55;;;;;;;17.23;14.15;;;;;;;19.05;100.00;101942.13;6184678;23;20009;-89
2023/09/07 06:28:20;;;;;;;14.98;10.60;;;;;;;20.89;96.46;101946.59;6184839;23;20005;-85
2023/09/07 06:30:46;;;;;;;17.33;13.02;;;;;;;22.41;87.71;101950.06;6184757;23;20091;-76
2023/09/07 06:33:11;;;;;;;14.75;11.65;;;;;;;23.71;77.87;101951.34;6184892;23;20005;-79
2023/09/07 06:35:36;;;;;;;14.43;10.32;;;;;;;24.60;72.74;101948.31;6184793;23;20005;-83
2023/09/07 06:38:02;;;;;;;16.48;11.30;;;;;;;25.47;68.17;101951.38;6185156;23;20009;-87
2023/09/07 06:40:27;;;;;;;12.30;9.95;;;;;;;26.31;63.87;101961.41;6184547;23;20327;-85
2023/09/07 06:42:53;;;;;;;13.20;9.80;;;;;;;26.95;60.14;101958.59;6186586;23;20011;-86
2023/09/07 06:45:18;;;;;;;12.90;10.07;;;;;;;27.41;58.29;101958.56;6186563;23;20001;-88
2023/09/07 06:47:44;;;;;;;12.20;9.48;;;;;;;27.79;55.96;101956.72;6186884;23;20100;-86
2023/09/07 06:50:10;;;;;;;13.23;10.18;;;;;;;27.89;53.83;101941.34;6186568;23;20075;-84
2023/09/07 06:52:35;;;;;;;13.07;8.90;;;;;;;28.19;52.92;101946.63;6186626;23;20322;-81
2023/09/07 06:55:01;;;;;;;11.13;8.80;;;;;;;28.28;50.95;101927.78;6186666;23;20005;-83
2023/09/07 06:57:26;;;;;;;9.82;7.45;;;;;;;28.69;51.38;101953.78;6185878;23;20032;-84
2023/09/07 06:59:52;;;;;;;11.73;8.32;;;;;;;28.86;50.06;101954.38;6186506;23;20086;-81
2023/09/07 07:02:17;;;;;;;9.18;7.25;;;;;;;28.69;49.63;101953.78;6135349;23;20338;-82
2023/09/07 07:04:45;;;;;;;11.82;8.15;;;;;;;27.66;51.59;101952.06;6186496;23;20016;-83
2023/09/07 07:07:10;;;;;;;11.85;8.98;;;;;;;25.95;57.24;101953.09;6186720;23;20096;-84
2023/09/07 07:09:36;;;;;;;11.57;9.15;;;;;;;24.45;61.86;101941.97;6186564;23;20425;-84
2023/09/07 07:12:02;;;;;;;11.52;9.10;;;;;;;23.38;66.38;101950.22;6186199;23;20012;-84
2023/09/07 07:14:27;;;;;;;12.82;8.95;;;;;;;22.45;71.20;101940.91;6186333;23;20399;-83
2023/09/07 07:16:53;;;;;;;10.50;8.68;;;;;;;21.90;74.65;101953.97;6160227;23;20009;-82
2023/09/07 07:19:18;;;;;;;12.40;10.07;;;;;;;21.31;78.04;101948.97;6186504;23;20063;-86
2023/09/07 07:21:44;;;;;;;15.52;10.30;;;;;;;20.62;79.39;101906.06;6186260;23;20036;-85
2023/09/07 07:24:10;;;;;;;12.63;10.27;;;;;;;20.62;82.74;101948.03;6180919;23;20079;-79
2023/09/07 07:26:35;;;;;;;15.20;10.50;;;;;;;20.34;85.00;101930.41;6183454;23;20013;-82
2023/09/07 07:29:02;;;;;;;13.38;10.88;;;;;;;19.81;85.85;101878.16;6186975;23;20374;-85
2023/09/07 07:31:29;;;;;;;13.70;10.07;;;;;;;19.96;87.04;101921.44;6186626;23;20004;-83
2023/09/07 07:33:55;;;;;;;11.27;10.02;;;;;;;20.13;89.71;101951.44;6186305;23;20076;-85
2023/09/07 07:36:21;;;;;;;14.23;10.65;;;;;;;20.07;90.80;101959.03;6185901;23;20032;-87
2023/09/07 07:38:46;;;;;;;12.40;9.73;;;;;;;20.04;88.45;101963.53;6186237;23;20012;-85
2023/09/07 07:41:12;;;;;;;14.15;10.32;;;;;;;20.03;90.31;101955.81;6186041;23;20009;-89
2023/09/07 07:43:37;;;;;;;13.25;10.45;;;;;;;19.85;89.58;101921.50;6185873;23;20005;-86
2023/09/07 07:46:02;;;;;;;12.48;10.30;;;;;;;20.05;90.84;101954.72;6186297;23;20009;-82
2023/09/07 07:48:29;;;;;;;13.88;10.35;;;;;;;20.11;89.01;101955.16;6186199;23;20426;-83
2023/09/07 07:50:54;;;;;;;14.70;10.27;;;;;;;20.13;91.56;101956.69;6186317;23;20075;-86
2023/09/07 07:53:20;;;;;;;13.00;9.40;;;;;;;20.17;90.36;101950.22;6185408;23;20456;-79
2023/09/07 07:55:46;;;;;;;13.93;10.00;;;;;;;20.19;89.77;101956.16;6185989;23;20091;-86
2023/09/07 07:58:11;;;;;;;12.25;9.88;;;;;;;20.10;89.17;101927.28;6185972;23;20079;-86
2023/09/07 08:00:38;;;;;;;11.65;9.55;;;;;;;20.32;88.58;101948.91;6186221;23;20360;-84
2023/09/07 08:03:05;;;;;;;11.00;9.32;;;;;;;20.41;88.86;101951.69;6185616;23;20004;-81
2023/09/07 08:05:34;;;;;;;11.23;8.98;;;;;;;20.47;88.84;101956.44;6185910;23;20139;-81
2023/09/07 08:08:00;;;;;;;12.18;9.52;;;;;;;20.44;90.96;101931.28;6185588;23;20458;-80
2023/09/07 08:10:26;;;;;;;10.27;8.07;;;;;;;20.44;89.03;101914.72;6185868;23;20007;-79
2023/09/07 08:12:54;;;;;;;12.20;8.80;;;;;;;20.68;89.27;101940.63;6185538;23;20438;-79
2023/09/07 08:15:22;;;;;;;10.45;8.15;;;;;;;20.82;88.66;101942.84;6185620;23;20001;-79
2023/09/07 08:17:48;;;;;;;13.77;9.35;;;;;;;20.77;85.53;101919.63;6185679;23;20092;-76
2023/09/07 08:20:13;;;;;;;11.40;7.80;;;;;;;20.94;84.56;101940.91;6185709;23;20091;-79
2023/09/07 08:22:41;;;;;;;10.55;7.60;;;;;;;21.02;84.81;101938.44;6185372;23;20020;-78
2023/09/07 08:25:10;;;;;;;10.45;7.95;;;;;;;21.09;83.49;101934.28;6159260;23;20001;-79
2023/09/07 08:27:35;;;;;;;12.23;7.93;;;;;;;21.10;83.20;101921.00;6185259;23;20001;-80
2023/09/07 08:30:01;;;;;;;10.30;7.93;;;;;;;21.15;83.19;101918.00;6185525;23;20012;-79
2023/09/07 08:32:26;;;;;;;11.77;7.68;;;;;;;21.30;83.67;101915.78;6185368;23;20013;-79
2023/09/07 08:34:56;;;;;;;10.88;7.70;;;;;;;21.40;82.86;101917.44;6158419;23;20012;-81
2023/09/07 08:37:22;;;;;;;10.85;7.82;;;;;;;21.35;81.85;101900.44;6185067;23;20457;-80
2023/09/07 08:39:47;;;;;;;9.18;7.70;;;;;;;21.45;81.78;101909.97;6185788;23;20009;-80
2023/09/07 08:42:12;;;;;;;10.30;7.40;;;;;;;21.51;82.51;101898.03;6159466;23;20339;-78
2023/09/07 08:44:42;;;;;;;12.75;7.70;;;;;;;21.67;82.75;101918.50;6158158;23;20431;-78
2023/09/07 08:47:08;;;;;;;10.63;7.72;;;;;;;21.52;81.63;101876.03;6185298;23;20001;-77
2023/09/07 08:49:34;;;;;;;10.95;7.95;;;;;;;21.81;78.77;101906.69;6185220;23;20009;-78
2023/09/07 08:52:03;;;;;;;10.68;7.80;;;;;;;21.79;77.55;101898.94;6185317;23;20008;-77
2023/09/07 08:54:29;;;;;;;9.00;7.25;;;;;;;21.99;76.53;101915.47;6158042;23;20096;-80
2023/09/07 08:56:57;;;;;;;13.05;8.45;;;;;;;21.97;75.23;101891.13;6186159;23;20036;-80
2023/09/07 08:59:22;;;;;;;12.25;7.70;;;;;;;22.11;75.97;101906.44;6158347;23;20305;-79
2023/09/07 09:01:47;;;;;;;11.05;7.40;;;;;;;22.16;75.71;101906.03;6185617;23;20040;-79
2023/09/07 09:04:13;;;;;;;10.52;8.30;;;;;;;22.21;75.49;101909.03;6184784;23;20042;-80
2023/09/07 09:06:38;;;;;;;10.25;7.85;;;;;;;22.10;76.04;101885.56;6184774;23;20445;-81
2023/09/07 09:09:07;;;;;;;11.65;8.05;;;;;;;22.30;78.16;101905.53;6185465;23;20005;-77
2023/09/07 09:11:32;;;;;;;10.18;7.93;;;;;;;22.33;76.55;101913.16;6185445;23;20005;-80
2023/09/07 09:13:59;;;;;;;12.57;8.20;;;;;;;22.30;76.12;101897.63;6184965;23;20025;-80
2023/09/07 09:16:25;;;;;;;14.48;8.43;;;;;;;22.41;76.00;101910.59;6185008;23;20005;-76
2023/09/07 09:18:52;;;;;;;13.25;8.25;;;;;;;22.47;76.26;101912.63;6185238;23;20005;-79
2023/09/07 09:21:22;;;;;;;11.27;7.75;;;;;;;22.41;75.69;101894.78;6185583;23;20076;-79
2023/09/07 09:23:50;;;;;;;9.13;7.57;;;;;;;22.60;76.00;101910.47;6185174;23;20493;-78
2023/09/07 09:26:16;;;;;;;9.02;7.28;;;;;;;22.68;76.29;101904.47;6185216;23;20729;-76
2023/09/07 09:28:42;;;;;;;10.57;7.10;;;;;;;22.71;75.58;101893.63;6184843;23;20001;-79
2023/09/07 09:31:12;;;;;;;11.77;7.22;;;;;;;22.63;75.90;101864.59;6184916;23;20324;-78
2023/09/07 09:33:39;;;;;;;9.65;6.50;;;;;;;22.86;75.86;101896.59;6158188;23;20431;-80
2023/09/07 09:36:06;;;;;;;10.77;7.25;;;;;;;22.94;76.64;101894.03;6184918;23;20427;-80
2023/09/07 09:38:32;;;;;;;11.82;6.90;;;;;;;22.82;74.17;101872.34;6185310;23;20366;-80
2023/09/07 09:40:58;;;;;;;9.82;6.53;;;;;;;23.06;73.74;101892.81;6185596;23;20075;-80
2023/09/07 09:43:25;;;;;;;9.95;6.60;;;;;;;23.09;74.72;101887.25;6184979;23;20415;-80
2023/09/07 09:45:52;;;;;;;8.52;6.10;;;;;;;23.20;74.84;101888.81;6184733;23;20000;-79
2023/09/07 09:48:19;;;;;;;9.50;6.10;;;;;;;23.25;71.58;101885.72;6185161;23;20066;-79
2023/09/07 09:50:48;;;;;;;10.07;5.75;;;;;;;23.32;73.07;101895.50;6185069;23;20001;-81
2023/09/07 09:53:18;;;;;;;10.32;6.60;;;;;;;23.35;71.67;101883.81;6185036;23;20080;-81
2023/09/07 09:55:47;;;;;;;8.75;5.60;;;;;;;23.30;69.25;101878.16;6185206;23;20055;-80
2023/09/07 09:58:16;;;;;;;7.90;5.40;;;;;;;23.36;71.14;101867.03;6185275;23;20374;-78
2023/09/07 10:00:48;;;;;;;8.50;5.60;;;;;;;23.59;70.11;101886.63;6184898;23;20005;-79
2023/09/07 10:03:26;;;;;;;8.15;4.95;;;;;;;23.57;70.46;101867.47;6185009;23;20001;-80
2023/09/07 10:05:52;;;;;;;8.57;5.82;;;;;;;23.77;70.52;101886.56;6160072;23;20415;-87
2023/09/07 10:08:19;;;;;;;9.77;5.38;;;;;;;23.79;70.06;101879.31;6185184;23;20009;-80
2023/09/07 10:10:53;;;;;;;7.45;4.82;;;;;;;23.86;70.13;101877.72;6185038;23;20059;-85
2023/09/07 10:13:29;;;;;;;8.10;4.68;;;;;;;23.92;67.47;101879.72;6184840;23;20032;-81
2023/09/07 10:16:07;;;;;;;9.77;4.82;;;;;;;23.83;66.42;101859.56;6185804;23;20047;-81
2023/09/07 10:18:39;;;;;;;7.43;5.05;;;;;;;23.96;67.83;101867.03;6187099;23;20011;-79
2023/09/07 10:21:05;;;;;;;8.00;5.05;;;;;;;24.07;67.43;101879.13;6186950;23;20008;-79
2023/09/07 10:23:42;;;;;;;8.35;5.15;;;;;;;24.11;68.17;101885.75;6186735;23;20020;-81
2023/09/07 10:26:18;;;;;;;8.23;5.00;;;;;;;24.20;67.89;101884.78;6187228;23;20032;-81
2023/09/07 10:28:44;;;;;;;8.82;5.03;;;;;;;24.32;68.32;101878.25;6186887;23;20013;-77
2023/09/07 10:31:18;;;;;;;8.73;4.75;;;;;;;24.35;66.33;101880.56;6186927;23;20329;-80
2023/09/07 10:33:44;;;;;;;8.88;5.10;;;;;;;24.44;67.69;101874.31;6186652;23;20012;-81
2023/09/07 10:36:21;;;;;;;7.85;4.78;;;;;;;24.60;69.21;101873.53;6186651;23;20080;-83
2023/09/07 10:38:46;;;;;;;7.60;5.43;;;;;;;24.59;66.99;101859.50;6186860;23;20427;-79
2023/09/07 10:41:12;;;;;;;7.13;5.10;;;;;;;24.60;66.00;101862.97;6186640;23;20015;-80
2023/09/07 10:43:47;;;;;;;6.95;4.90;;;;;;;24.65;67.43;101860.63;6186581;23;20005;-80
2023/09/07 10:46:13;;;;;;;9.85;5.22;;;;;;;24.70;68.42;101860.16;6186438;23;20032;-78
2023/09/07 10:48:38;;;;;;;7.68;4.75;;;;;;;24.59;66.16;101840.19;6186588;23;20012;-81
2023/09/07 10:51:04;;;;;;;6.28;4.53;;;;;;;24.81;66.87;101865.94;6186729;23;20451;-82
2023/09/07 10:53:33;;;;;;;9.30;5.35;;;;;;;24.78;63.59;101849.59;6186966;23;20013;-80
2023/09/07 10:56:02;;;;;;;8.25;5.40;;;;;;;24.91;66.27;101854.38;6186113;23;20016;-77
2023/09/07 10:58:35;;;;;;;7.55;4.60;;;;;;;24.91;64.33;101854.38;6186702;23;20047;-77
2023/09/07 11:01:03;;;;;;;8.50;4.63;;;;;;;24.94;62.04;101854.88;6186165;23;20391;-77
2023/09/07 11:03:29;;;;;;;7.68;4.70;;;;;;;24.99;60.47;101846.47;6186596;23;20081;-77
2023/09/07 11:05:59;;;;;;;6.85;4.60;;;;;;;24.95;62.01;101830.09;6186329;23;20368;-82